createdAt,value
2023-01-03T00:03:17.168Z,7.47
2023-01-03T00:08:08.895Z,7.82
2023-01-03T00:13:00.543Z,7.92
2023-01-03T00:17:52.864Z,7.97
2023-01-03T00:22:45.839Z,7.75
2023-01-03T00:27:37.396Z,8.01
2023-01-03T00:32:29.664Z,7.91
2023-01-03T00:37:21.296Z,7.16
2023-01-03T00:42:13.806Z,7.95
2023-01-03T00:47:05.372Z,7.55
2023-01-03T00:51:57.243Z,7.45
2023-01-03T00:56:50.094Z,7.70
2023-01-03T01:01:47.845Z,7.45
2023-01-03T01:06:42.907Z,7.35
2023-01-03T01:11:35.134Z,7.33
2023-01-03T01:16:32.168Z,7.09
2023-01-03T01:21:27.493Z,6.84
2023-01-03T01:26:22.376Z,6.88
2023-01-03T01:31:16.800Z,6.70
2023-01-03T01:36:10.596Z,6.53
2023-01-03T01:41:03.971Z,6.10
2023-01-03T01:45:55.672Z,6.11
2023-01-03T01:50:52.536Z,6.09
2023-01-03T01:55:49.925Z,6.13
2023-01-03T02:00:43.900Z,6.35
2023-01-03T02:05:38.342Z,6.29
2023-01-03T02:10:48.399Z,6.24
2023-01-03T02:15:56.214Z,5.80
2023-01-03T02:20:53.918Z,6.00
2023-01-03T02:26:13.538Z,5.95
2023-01-03T02:31:11.160Z,5.93
2023-01-03T02:36:18.137Z,5.70
2023-01-03T02:41:34.795Z,5.80
2023-01-03T02:46:35.385Z,5.65
2023-01-03T02:52:04.638Z,5.42
2023-01-03T02:57:04.373Z,4.84
2023-01-03T03:01:56.604Z,5.05
2023-01-03T03:07:03.364Z,5.39
2023-01-03T03:12:16.363Z,5.34
2023-01-03T03:17:13.490Z,5.03
2023-01-03T03:22:29.854Z,5.25
2023-01-03T03:27:43.644Z,5.22
2023-01-03T03:32:38.443Z,5.25
2023-01-03T03:37:34.211Z,5.37
2023-01-03T03:42:59.895Z,5.49
2023-01-03T03:47:59.240Z,5.04
2023-01-03T03:52:59.255Z,5.69
2023-01-03T03:57:56.037Z,5.86
2023-01-03T04:02:50.092Z,5.46
2023-01-03T04:07:41.992Z,5.98
2023-01-03T04:12:33.779Z,5.86
2023-01-03T04:17:25.304Z,5.64
2023-01-03T04:22:16.844Z,5.22
2023-01-03T04:27:08.636Z,5.16
2023-01-03T04:32:01.887Z,5.37
2023-01-03T04:36:53.536Z,5.37
2023-01-03T04:41:45.158Z,5.67
2023-01-03T04:46:39.293Z,5.43
2023-01-03T04:51:31.749Z,6.15
2023-01-03T04:56:42.707Z,6.51
2023-01-03T05:01:34.545Z,6.37
2023-01-03T05:06:29.222Z,6.12
2023-01-03T05:11:20.918Z,6.63
2023-01-03T05:16:14.452Z,6.93
2023-01-03T05:21:35.863Z,6.51
2023-01-03T05:26:27.459Z,6.75
2023-01-03T05:31:19.966Z,6.75
2023-01-03T05:36:12.002Z,6.81
2023-01-03T05:41:04.597Z,6.79
2023-01-03T05:45:56.177Z,6.16
2023-01-03T05:50:49.882Z,5.72
2023-01-03T05:55:41.618Z,6.10
2023-01-03T06:00:34.410Z,5.93
2023-01-03T06:05:26.229Z,4.84
2023-01-03T06:10:18.931Z,5.78
2023-01-03T06:15:10.693Z,5.72
2023-01-03T06:20:02.343Z,5.65
2023-01-03T06:24:53.914Z,5.08
2023-01-03T06:29:45.509Z,5.51
2023-01-03T06:34:37.945Z,5.05
2023-01-03T06:39:29.627Z,5.72
2023-01-03T06:44:21.158Z,5.92
2023-01-03T06:49:34.393Z,5.85
2023-01-03T06:54:29.144Z,6.02
2023-01-03T06:59:21.130Z,5.89
2023-01-03T07:04:13.362Z,5.70
2023-01-03T07:09:05.076Z,5.76
2023-01-03T07:13:59.728Z,6.31
2023-01-03T07:18:55.368Z,6.06
2023-01-03T07:23:47.303Z,5.98
2023-01-03T07:28:39.985Z,5.98
2023-01-03T07:33:32.272Z,5.97
2023-01-03T07:38:23.803Z,6.51
2023-01-03T07:43:34.935Z,6.48
2023-01-03T07:48:26.565Z,6.65
2023-01-03T07:53:18.237Z,5.57
2023-01-03T07:58:10.444Z,6.54
2023-01-03T08:03:02.172Z,6.04
2023-01-03T08:07:54.300Z,6.44
2023-01-03T08:13:04.473Z,6.46
2023-01-03T08:17:56.088Z,6.39
2023-01-03T08:22:48.484Z,6.80
2023-01-03T08:27:43.904Z,6.58
2023-01-03T08:32:38.945Z,6.62
2023-01-03T08:37:30.523Z,7.04
2023-01-03T08:42:23.582Z,7.11
2023-01-03T08:47:16.225Z,6.78
2023-01-03T08:52:08.815Z,6.21
2023-01-03T08:57:00.612Z,7.12
2023-01-03T09:01:53.043Z,7.87
2023-01-03T09:06:44.797Z,8.51
2023-01-03T09:11:36.506Z,7.88
2023-01-03T09:16:28.360Z,7.60
2023-01-03T09:21:20.857Z,9.76
2023-01-03T09:26:12.437Z,9.89
2023-01-03T09:31:05.642Z,9.26
2023-01-03T09:35:57.510Z,8.85
2023-01-03T09:41:02.904Z,8.71
2023-01-03T09:45:58.265Z,9.13
2023-01-03T09:51:17.126Z,9.10
2023-01-03T09:56:20.971Z,9.59
2023-01-03T10:01:50.288Z,9.78
2023-01-03T10:06:55.001Z,9.73
2023-01-03T10:11:59.125Z,8.95
2023-01-03T10:17:02.287Z,9.61
2023-01-03T10:22:03.521Z,10.19
2023-01-03T10:27:03.464Z,10.44
2023-01-03T10:32:09.366Z,10.98
2023-01-03T10:37:02.277Z,11.26
2023-01-03T10:41:58.466Z,10.78
2023-01-03T10:46:53.927Z,10.66
2023-01-03T10:52:02.821Z,10.63
2023-01-03T10:56:54.432Z,10.01
2023-01-03T11:02:18.926Z,10.31
2023-01-03T11:07:13.739Z,10.72
2023-01-03T11:12:17.773Z,10.80
2023-01-03T11:17:12.676Z,10.84
2023-01-03T11:22:06.988Z,10.90
2023-01-03T11:27:36.320Z,11.03
2023-01-03T11:33:00.148Z,11.17
2023-01-03T11:38:09.185Z,11.57
2023-01-03T11:43:35.696Z,11.22
2023-01-03T11:48:40.230Z,12.11
2023-01-03T11:53:49.777Z,12.01
2023-01-03T11:59:19.030Z,12.49
2023-01-03T12:04:42.359Z,12.45
2023-01-03T12:09:51.610Z,11.88
2023-01-03T12:14:56.955Z,11.79
2023-01-03T12:19:59.578Z,11.57
2023-01-03T12:25:16.378Z,11.96
2023-01-03T12:30:34.079Z,12.33
2023-01-03T12:35:28.700Z,12.16
2023-01-03T12:40:36.768Z,11.99
2023-01-03T12:45:48.636Z,11.80
2023-01-03T12:50:51.947Z,11.34
2023-01-03T12:55:51.730Z,11.55
2023-01-03T13:01:00.426Z,11.57
2023-01-03T13:06:02.119Z,11.60
2023-01-03T13:10:59.243Z,11.38
2023-01-03T13:15:50.909Z,11.11
2023-01-03T13:20:49.660Z,10.99
2023-01-03T13:25:42.588Z,10.60
2023-01-03T13:30:36.707Z,11.39
2023-01-03T13:35:37.065Z,11.33
2023-01-03T13:40:59.819Z,11.16
2023-01-03T13:45:42.756Z,11.79
2023-01-03T13:50:36.753Z,11.85
2023-01-03T13:55:54.492Z,11.91
2023-01-03T14:00:46.968Z,11.42
2023-01-03T14:05:56.843Z,11.61
2023-01-03T14:11:00.094Z,11.37
2023-01-03T14:16:13.467Z,10.95
2023-01-03T14:21:14.543Z,10.71
2023-01-03T14:26:15.807Z,10.58
2023-01-03T14:31:34.700Z,9.86
2023-01-03T14:36:27.491Z,10.09
2023-01-03T14:41:36.047Z,9.92
2023-01-03T14:46:30.069Z,9.86
2023-01-03T14:51:21.694Z,9.89
2023-01-03T14:56:13.707Z,9.51
2023-01-03T15:01:10.338Z,9.20
2023-01-03T15:06:02.332Z,9.31
2023-01-03T15:11:03.613Z,9.24
2023-01-03T15:16:01.166Z,9.32
2023-01-03T15:20:55.207Z,9.18
2023-01-03T15:25:46.983Z,8.92
2023-01-03T15:30:47.913Z,7.88
2023-01-03T15:35:42.338Z,8.83
2023-01-03T15:40:34.069Z,8.46
2023-01-03T15:45:28.679Z,8.55
2023-01-03T15:50:20.696Z,7.66
2023-01-03T15:55:13.907Z,8.26
2023-01-03T16:00:09.072Z,7.53
2023-01-03T16:05:00.887Z,8.11
2023-01-03T16:09:52.529Z,7.53
2023-01-03T16:14:48.567Z,7.76
2023-01-03T16:19:40.385Z,7.89
2023-01-03T16:24:34.910Z,7.64
2023-01-03T16:29:27.854Z,7.29
2023-01-03T16:34:26.385Z,7.44
2023-01-03T16:39:26.917Z,7.14
2023-01-03T16:44:18.479Z,7.04
2023-01-03T16:49:11.082Z,7.63
2023-01-03T16:54:07.464Z,7.13
2023-01-03T16:58:59.063Z,6.65
2023-01-03T17:03:50.795Z,7.68
2023-01-03T17:08:42.798Z,7.65
2023-01-03T17:13:40.962Z,7.03
2023-01-03T17:18:37.296Z,7.42
2023-01-03T17:23:32.296Z,7.35
2023-01-03T17:28:24.157Z,7.47
2023-01-03T17:33:15.741Z,7.49
2023-01-03T17:38:25.575Z,7.42
2023-01-03T17:43:23.752Z,7.36
2023-01-03T17:48:35.095Z,7.14
2023-01-03T17:53:26.981Z,7.26
2023-01-03T17:58:36.245Z,6.90
2023-01-03T18:03:29.037Z,6.97
2023-01-03T18:08:22.804Z,7.32
2023-01-03T18:13:26.962Z,7.02
2023-01-03T18:18:20.617Z,6.86
2023-01-03T18:23:38.192Z,7.17
2023-01-03T18:28:30.140Z,7.38
2023-01-03T18:33:22.559Z,6.87
2023-01-03T18:38:24.946Z,7.35
2023-01-03T18:43:19.153Z,6.38
2023-01-03T18:48:17.124Z,6.84
2023-01-03T18:53:15.775Z,6.74
2023-01-03T18:58:16.978Z,6.28
2023-01-03T19:03:22.217Z,6.58
2023-01-03T19:08:16.634Z,6.81
2023-01-03T19:13:21.374Z,5.19
2023-01-03T19:18:12.954Z,6.50
2023-01-03T19:23:06.332Z,6.83
2023-01-03T19:28:01.749Z,6.87
2023-01-03T19:32:56.153Z,6.97
2023-01-03T19:37:47.787Z,5.35
2023-01-03T19:42:48.062Z,6.92
2023-01-03T19:47:39.747Z,7.13
2023-01-03T19:52:31.297Z,7.11
2023-01-03T19:57:30.153Z,7.12
2023-01-03T20:02:36.282Z,6.77
2023-01-03T20:07:28.208Z,6.57
2023-01-03T20:12:26.072Z,6.83
2023-01-03T20:17:21.283Z,6.61
2023-01-03T20:22:37.277Z,6.37
2023-01-03T20:27:24.908Z,6.97
2023-01-03T20:32:16.515Z,7.06
2023-01-03T20:37:17.044Z,7.16
2023-01-03T20:42:24.734Z,6.37
2023-01-03T20:47:25.019Z,6.54
2023-01-03T20:52:17.702Z,6.78
2023-01-03T20:57:21.335Z,6.72
2023-01-03T21:02:13.160Z,6.65
2023-01-03T21:07:11.438Z,6.26
2023-01-03T21:12:03.649Z,5.80
2023-01-03T21:16:55.240Z,6.63
2023-01-03T21:21:49.165Z,6.71
2023-01-03T21:26:42.158Z,6.69
2023-01-03T21:31:35.538Z,6.73
2023-01-03T21:36:32.785Z,6.75
2023-01-03T21:41:28.272Z,5.92
2023-01-03T21:46:21.091Z,6.65
2023-01-03T21:51:14.209Z,6.86
2023-01-03T21:56:12.038Z,6.45
2023-01-03T22:01:16.282Z,7.04
2023-01-03T22:06:10.855Z,5.78
2023-01-03T22:11:03.318Z,7.06
2023-01-03T22:15:55.507Z,5.79
2023-01-03T22:20:47.270Z,7.19
2023-01-03T22:25:38.894Z,6.77
2023-01-03T22:30:30.520Z,6.73
2023-01-03T22:35:22.474Z,6.40
2023-01-03T22:40:17.681Z,7.14
2023-01-03T22:45:10.461Z,6.56
2023-01-03T22:50:07.590Z,7.03
2023-01-03T22:54:59.245Z,7.06
2023-01-03T22:59:50.960Z,6.90
2023-01-03T23:04:42.695Z,6.44
2023-01-03T23:09:34.341Z,7.04
2023-01-03T23:14:27.225Z,7.18
2023-01-03T23:19:21.625Z,7.25
2023-01-03T23:24:15.755Z,6.84
2023-01-03T23:29:09.158Z,7.43
2023-01-03T23:34:00.836Z,7.48
2023-01-03T23:38:54.116Z,7.81
2023-01-03T23:43:46.181Z,7.35
2023-01-03T23:48:37.888Z,7.41
2023-01-03T23:53:29.700Z,7.94
2023-01-03T23:58:22.203Z,7.78
